Time;durP1;ratioP1;P1;durP2;ratioP2;P2;SDS_P1;SDS_P2;PMS_P1;PMS_P2;Temp;Humidity;BMP_temperature;BMP_pressure;BME280_temperature;BME280_humidity;BME280_pressure;Samples;Min_cycle;Max_cycle;Signal;HPM_P1;HPM_P2
2022/04/14 00:00:41;;;;;;;23.60;13.70;;;;;;;;;;5055341;28;20151;-77
2022/04/14 00:03:07;;;;;;;31.15;18.50;;;282.40;1715.20;;;;;;5036782;28;20033;-75
2022/04/14 00:05:33;;;;;;;17.17;11.55;;;;;;;;;;5053726;28;20017;-75
2022/04/14 00:07:59;;;;;;;20.08;11.18;;;;;;;;;;5054480;28;20029;-77
2022/04/14 00:10:25;;;;;;;13.48;10.20;;;;;;;;;;5054868;28;20025;-77
2022/04/14 00:12:51;;;;;;;45.20;25.45;;;;;;;;;;5054621;28;20052;-76
2022/04/14 00:15:18;;;;;;;27.20;18.02;;;;;;;;;;5054241;28;20037;-80
2022/04/14 00:17:44;;;;;;;19.27;11.65;;;;;;;;;;5054364;28;20033;-75
2022/04/14 00:20:10;;;;;;;14.18;9.38;;;;;;;;;;5054617;28;20028;-80
2022/04/14 00:22:37;;;;;;;15.45;9.32;;;;;;;;;;5054402;28;20383;-78
2022/04/14 00:25:04;;;;;;;41.50;22.73;;;;;;;;;;5054286;28;20021;-79
2022/04/14 00:27:30;;;;;;;36.15;19.25;;;;;;;;;;5054164;28;20013;-77
2022/04/14 00:29:56;;;;;;;24.92;16.40;;;;;;;;;;5054319;28;20028;-77
2022/04/14 00:32:22;;;;;;;30.13;17.70;;;;;;;;;;5053912;28;20031;-76
2022/04/14 00:34:49;;;;;;;23.42;14.50;;;;;;;;;;5054275;28;20024;-77
2022/04/14 00:37:17;;;;;;;35.25;21.85;;;;;;;;;;5054507;28;20033;-77
2022/04/14 00:39:43;;;;;;;43.85;27.42;;;;;;;;;;5054239;28;20022;-77
2022/04/14 00:42:12;;;;;;;73.22;44.75;;;;;;;;;;5053984;28;20025;-77
2022/04/14 00:44:38;;;;;;;69.25;41.47;;;;;;;;;;5053997;28;20032;-76
2022/04/14 00:47:05;;;;;;;23.48;15.20;;;;;;;;;;5035903;28;20033;-76
2022/04/14 00:49:32;;;;;;;18.23;11.40;;;;;;;;;;5053895;28;20025;-75
2022/04/14 00:52:00;;;;;;;19.10;13.23;;;;;;;;;;5053901;28;20654;-78
2022/04/14 00:54:26;;;;;;;19.02;13.18;;;;;;;;;;5053885;28;20080;-77
2022/04/14 00:56:52;;;;;;;18.67;12.98;;;;;;;;;;5053960;28;20028;-77
2022/04/14 00:59:18;;;;;;;126.40;75.15;;;;;;;;;;5053520;28;20021;-78
2022/04/14 01:01:44;;;;;;;96.13;53.83;;;;;;;;;;5053467;28;20025;-77
2022/04/14 01:04:11;;;;;;;49.95;31.75;;;;;;;;;;5053578;28;20147;-76
2022/04/14 01:06:38;;;;;;;24.30;14.85;;;;;;;;;;5053606;28;20021;-75
2022/04/14 01:09:18;;;;;;;34.10;22.20;;;;;;;;;;5053742;28;20021;-76
2022/04/14 01:11:45;;;;;;;39.25;24.27;;;;;;;;;;5053617;28;20028;-75
2022/04/14 01:14:31;;;;;;;55.55;45.65;;;;;;;;;;5053118;28;20028;-76
2022/04/14 01:16:59;;;;;;;16.75;11.85;;;;;;;;;;5053203;28;20127;-76
2022/04/14 01:19:25;;;;;;;13.68;10.50;;;;;;;;;;5053439;28;20470;-77
2022/04/14 01:22:01;;;;;;;14.02;9.68;;;;;;;;;;5053449;28;20039;-76
2022/04/14 01:24:27;;;;;;;10.73;8.98;;;;;;;;;;5053281;28;20483;-78
2022/04/14 01:26:56;;;;;;;12.68;9.82;;;;;;;;;;5053605;28;20029;-79
2022/04/14 01:29:24;;;;;;;18.95;11.75;;;;;;;;;;5053279;28;20092;-79
2022/04/14 01:31:51;;;;;;;16.30;12.73;;;;;;;;;;5053259;28;20029;-79
2022/04/14 01:34:17;;;;;;;11.07;9.00;;;;;;;;;;5053310;28;20021;-77
2022/04/14 01:36:43;;;;;;;13.70;8.95;;;;;;;;;;5053182;28;20079;-74
2022/04/14 01:39:11;;;;;;;11.05;7.95;;;;;;;;;;5053121;28;20491;-77
2022/04/14 01:41:40;;;;;;;12.85;8.38;;;;;;;;;;5052933;28;20025;-77
2022/04/14 01:44:07;;;;;;;12.10;8.13;;;;;;;;;;5053029;28;20043;-79
2022/04/14 01:46:33;;;;;;;11.65;8.30;;;;;;;;;;5052958;28;20040;-80
2022/04/14 01:48:59;;;;;;;19.50;8.88;;;231.20;1740.80;;;;;;5052872;28;20017;-77
2022/04/14 01:51:28;;;;;;;13.70;10.00;;;231.20;1766.40;;;;;;5053005;28;20028;-78
2022/04/14 01:53:54;;;;;;;11.98;9.75;;;231.20;1792.00;;;;;;5053056;28;20078;-77
2022/04/14 01:56:21;;;;;;;11.85;9.30;;;231.30;1766.40;;;;;;5052788;28;20037;-76
2022/04/14 01:58:48;;;;;;;13.68;9.20;;;256.00;1766.40;;;;;;5053196;28;20463;-75
2022/04/14 02:01:13;;;;;;;11.68;9.45;;;256.10;1766.40;;;;;;5052967;28;20056;-76
2022/04/14 02:03:39;;;;;;;12.15;9.43;;;256.10;1740.80;;;;;;5052806;28;20057;-77
2022/04/14 02:06:05;;;;;;;12.40;8.70;;;256.20;1740.80;;;;;;5053033;28;20139;-77
2022/04/14 02:08:31;;;;;;;14.88;9.55;;;256.30;1740.80;;;;;;5052871;28;20024;-76
2022/04/14 02:10:57;;;;;;;11.98;8.30;;;256.40;1740.80;;;;;;5053584;28;20099;-75
2022/04/14 02:13:22;;;;;;;10.50;8.32;;;256.40;1740.80;;;;;;5052820;28;20429;-75
2022/04/14 02:15:48;;;;;;;11.05;7.68;;;256.50;2099.20;;;;;;5052880;28;20053;-77
2022/04/14 02:18:14;;;;;;;9.85;7.40;;;256.60;1715.20;;;;;;5052808;28;20029;-78
2022/04/14 02:20:40;;;;;;;11.73;7.80;;;256.70;1689.60;;;;;;5052673;28;20029;-76
2022/04/14 02:23:06;;;;;;;13.48;8.95;;;;;;;;;;5052753;28;20025;-78
2022/04/14 02:25:32;;;;;;;13.15;8.23;;;256.70;1689.60;;;;;;5052686;28;20103;-75
2022/04/14 02:27:58;;;;;;;18.85;11.23;;;;;;;;;;5052545;28;20064;-77
2022/04/14 02:30:24;;;;;;;22.90;16.30;;;;;;;;;;5056492;28;20129;-75
2022/04/14 02:32:49;;;;;;;23.85;18.92;;;256.90;1664.00;;;;;;5056483;28;20024;-75
2022/04/14 02:35:15;;;;;;;18.17;13.93;;;256.70;1689.60;;;;;;5056531;28;20082;-75
2022/04/14 02:37:41;;;;;;;15.95;12.00;;;256.70;1689.60;;;;;;5056760;28;20089;-75
2022/04/14 02:40:07;;;;;;;14.27;12.10;;;256.70;1689.60;;;;;;5056662;28;20512;-75
2022/04/14 02:42:33;;;;;;;14.73;11.43;;;256.50;1715.20;;;;;;5055993;28;20494;-75
2022/04/14 02:44:59;;;;;;;12.20;9.00;;;256.40;1715.20;;;;;;5056328;28;20056;-74
2022/04/14 02:47:25;;;;;;;12.93;8.15;;;256.60;1715.20;;;;;;5056054;28;20025;-75
2022/04/14 02:49:51;;;;;;;16.40;9.63;;;256.50;1715.20;;;;;;5056279;28;20068;-75
2022/04/14 02:52:17;;;;;;;13.75;8.95;;;256.40;1715.20;;;;;;5056143;28;20495;-75
2022/04/14 02:54:43;;;;;;;15.20;9.95;;;256.10;1740.80;;;;;;5056395;28;20094;-75
2022/04/14 02:57:09;;;;;;;16.48;10.80;;;256.00;2150.40;;;;;;5055910;28;20033;-75
2022/04/14 02:59:36;;;;;;;16.75;9.10;;;256.20;1740.80;;;;;;5055684;28;20072;-75
2022/04/14 03:02:03;;;;;;;20.58;10.75;;;256.20;1740.80;;;;;;5037981;28;20021;-75
2022/04/14 03:04:30;;;;;;;16.27;8.90;;;256.10;1740.80;;;;;;5055993;28;20017;-75
2022/04/14 03:06:56;;;;;;;11.05;7.53;;;256.00;1766.40;;;;;;5055891;28;20147;-77
2022/04/14 03:09:22;;;;;;;16.20;10.00;;;231.30;1766.40;;;;;;5055851;28;20025;-77
2022/04/14 03:11:49;;;;;;;10.40;7.97;;;;;;;;;;5055820;28;20453;-77
2022/04/14 03:14:15;;;;;;;14.50;9.38;;;;;;;;;;5055605;28;20021;-75
2022/04/14 03:16:41;;;;;;;16.02;9.25;;;;;;;;;;5055413;28;20123;-76
2022/04/14 03:19:07;;;;;;;10.38;7.85;;;;;;;;;;5055755;28;20021;-77
2022/04/14 03:21:33;;;;;;;10.60;7.00;;;;;;;;;;5055527;28;20024;-76
2022/04/14 03:23:59;;;;;;;12.02;8.18;;;;;;;;;;5056048;28;20459;-75
2022/04/14 03:26:25;;;;;;;11.07;8.13;;;;;;;;;;5055366;28;20435;-74
2022/04/14 03:28:51;;;;;;;14.18;9.43;;;;;;;;;;5037466;28;20021;-75
2022/04/14 03:31:17;;;;;;;19.08;10.55;;;;;;;;;;5055303;28;20049;-79
2022/04/14 03:33:43;;;;;;;15.52;10.15;;;;;;;;;;5055366;28;20463;-77
2022/04/14 03:36:09;;;;;;;12.88;8.80;;;231.10;1766.40;;;;;;5055226;28;20036;-73
2022/04/14 03:38:35;;;;;;;15.40;9.15;;;231.00;1766.40;;;;;;5055489;28;20029;-73
2022/04/14 03:41:04;;;;;;;15.80;9.77;;;;;;;;;;5055079;28;20096;-76
2022/04/14 03:43:30;;;;;;;13.38;8.23;;;;;;;;;;5055532;28;20106;-77
2022/04/14 03:45:56;;;;;;;16.60;8.68;;;;;;;;;;5055114;28;20025;-79
2022/04/14 03:48:22;;;;;;;12.30;8.20;;;;;;;;;;5055040;28;20483;-79
2022/04/14 03:50:48;;;;;;;13.82;9.30;;;;;;;;;;5055089;28;20390;-77
2022/04/14 03:53:14;;;;;;;14.15;10.38;;;;;;;;;;5055431;28;20025;-78
2022/04/14 03:55:40;;;;;;;13.43;9.82;;;;;;;;;;5054766;28;20143;-78
2022/04/14 03:58:07;;;;;;;14.30;9.18;;;;;;;;;;5054841;28;20033;-75
2022/04/14 04:00:32;;;;;;;15.60;8.55;;;205.20;1945.60;;;;;;5054750;28;20029;-73
2022/04/14 04:02:58;;;;;;;10.90;8.07;;;;;;;;;;5036855;28;20043;-72
2022/04/14 04:05:24;;;;;;;14.68;9.35;;;;;;;;;;5054945;28;20096;-73
2022/04/14 04:07:50;;;;;;;17.90;10.90;;;;;;;;;;5054830;28;20048;-73
2022/04/14 04:10:16;;;;;;;14.13;11.13;;;;;;;;;;5055171;28;20029;-72
2022/04/14 04:12:42;;;;;;;16.77;10.38;;;;;;;;;;5054540;28;20064;-72
2022/04/14 04:15:11;;;;;;;19.65;9.93;;;;;;;;;;5054178;28;20041;-72
2022/04/14 04:17:38;;;;;;;20.02;10.57;;;;;;;;;;5035988;28;20090;-76
2022/04/14 04:20:05;;;;;;;20.13;13.73;;;;;;;;;;5054364;28;20013;-76
2022/04/14 04:22:33;;;;;;;27.30;13.88;;;205.30;1971.20;;;;;;5054418;28;20025;-74
2022/04/14 04:24:59;;;;;;;24.75;14.15;;;205.30;1945.60;;;;;;5036284;28;20035;-75
2022/04/14 04:27:25;;;;;;;19.52;13.55;;;205.40;1945.60;;;;;;5054415;28;20083;-76
2022/04/14 04:29:51;;;;;;;18.50;11.80;;;205.40;1945.60;;;;;;5054092;28;20049;-76
2022/04/14 04:32:18;;;;;;;22.73;12.43;;;205.40;1945.60;;;;;;5054242;28;20490;-74
2022/04/14 04:34:44;;;;;;;20.80;11.02;;;205.30;1971.20;;;;;;5054378;28;20025;-74
2022/04/14 04:37:10;;;;;;;21.95;12.98;;;205.30;1971.20;;;;;;5054117;28;20075;-74
2022/04/14 04:39:35;;;;;;;23.63;14.05;;;205.30;1971.20;;;;;;5054051;28;20025;-74
2022/04/14 04:42:01;;;;;;;24.85;15.25;;;205.30;1971.20;;;;;;5054129;28;20475;-77
2022/04/14 04:44:27;;;;;;;31.25;15.98;;;205.60;1945.60;;;;;;5053945;28;20024;-77
2022/04/14 04:46:53;;;;;;;28.02;17.52;;;205.70;1920.00;;;;;;5054234;28;20021;-77
2022/04/14 04:49:18;;;;;;;27.17;16.17;;;205.60;1945.60;;;;;;5054032;28;20083;-74
2022/04/14 04:51:44;;;;;;;24.73;15.32;;;205.70;1920.00;;;;;;5053443;28;20021;-76
2022/04/14 04:54:10;;;;;;;24.98;14.80;;;205.70;1920.00;;;;;;5053848;28;20028;-73
2022/04/14 04:56:36;;;;;;;23.85;14.13;;;205.70;1920.00;;;;;;5054385;28;20060;-74
2022/04/14 04:59:02;;;;;;;19.60;13.23;;;205.70;2099.20;;;;;;5053540;28;20103;-74
2022/04/14 05:01:28;;;;;;;17.73;12.13;;;230.50;1920.00;;;;;;5053609;28;20036;-74
2022/04/14 05:03:54;;;;;;;19.52;12.23;;;230.40;1920.00;;;;;;5053727;28;20025;-74
2022/04/14 05:06:20;;;;;;;34.40;18.00;;;230.50;1920.00;;;;;;5053856;28;20021;-73
2022/04/14 05:08:47;;;;;;;24.05;15.45;;;230.50;1920.00;;;;;;5053546;28;20039;-78
2022/04/14 05:11:13;;;;;;;22.67;11.32;;;;;;;;;;5053482;28;20074;-80
2022/04/14 05:13:39;;;;;;;21.58;11.80;;;;;;;;;;5053604;28;20031;-80
2022/04/14 05:16:07;;;;;;;16.67;10.18;;;;;;;;;;5053181;28;20083;-79
2022/04/14 05:18:36;;;;;;;18.63;10.63;;;;;;;;;;5053099;28;20025;-78
2022/04/14 05:21:02;;;;;;;19.05;10.73;;;;;;;;;;5053550;28;20569;-79
2022/04/14 05:23:28;;;;;;;18.13;11.65;;;;;;;;;;5053192;28;20611;-79
2022/04/14 05:25:57;;;;;;;29.65;12.30;;;;;;;;;;5053817;28;20036;-77
2022/04/14 05:28:23;;;;;;;16.20;11.32;;;;;;;;;;5034948;28;20037;-77
2022/04/14 05:30:49;;;;;;;23.63;14.98;;;;;;;;;;5053271;28;20124;-78
2022/04/14 05:33:15;;;;;;;19.20;11.57;;;;;;;;;;5053012;28;20032;-73
2022/04/14 05:35:43;;;;;;;17.35;11.10;;;;;;;;;;5053136;28;20028;-74
2022/04/14 05:38:09;;;;;;;21.38;10.85;;;;;;;;;;5053114;28;20157;-78
2022/04/14 05:40:41;;;;;;;14.18;10.40;;;;;;;;;;5053290;28;20487;-75
2022/04/14 05:43:06;;;;;;;;;;;;;;;;;;5053175;28;20082;-75
2022/04/14 05:45:34;;;;;;;24.80;12.43;;;;;;;;;;5052993;28;19916;-75
2022/04/14 05:48:00;;;;;;;21.38;12.25;;;;;;;;;;5052811;28;20032;-74
2022/04/14 05:50:27;;;;;;;22.52;11.13;;;;;;;;;;5052749;28;20018;-78
2022/04/14 05:52:55;;;;;;;21.10;13.20;;;;;;;;;;5052930;28;20033;-78
2022/04/14 05:55:21;;;;;;;17.10;11.70;;;;;;;;;;5052855;28;20036;-74
2022/04/14 05:57:47;;;;;;;17.08;11.52;;;;;;;;;;5052621;28;20045;-74
2022/04/14 06:00:14;;;;;;;17.55;12.02;;;;;;;;;;5052761;28;20021;-74
2022/04/14 06:02:40;;;;;;;17.40;10.80;;;282.10;1689.60;;;;;;5052855;28;20025;-74
2022/04/14 06:05:06;;;;;;;19.92;12.45;;;282.20;1664.00;;;;;;5056333;28;20020;-76
2022/04/14 06:07:32;;;;;;;23.33;13.68;;;282.30;1664.00;;;;;;5056889;28;20060;-75
2022/04/14 06:09:58;;;;;;;21.27;11.20;;;;;;;;;;5056966;28;20063;-75
2022/04/14 06:12:24;;;;;;;22.55;14.02;;;;;;;;;;5056926;28;20529;-74
2022/04/14 06:14:51;;;;;;;20.75;12.35;;;;;;;;;;5056546;28;20079;-76
2022/04/14 06:17:17;;;;;;;20.92;13.25;;;;;;;;;;5056697;28;20029;-76
2022/04/14 06:19:43;;;;;;;26.67;15.10;;;;;;;;;;5056514;28;20017;-75
2022/04/14 06:22:09;;;;;;;17.88;10.52;;;;;;;;;;5056657;28;20025;-76
2022/04/14 06:24:35;;;;;;;15.68;9.68;;;;;;;;;;5056590;28;20021;-74
2022/04/14 06:27:01;;;;;;;24.60;11.57;;;308.10;1587.20;;;;;;5056854;28;20059;-74
2022/04/14 06:29:26;;;;;;;12.63;8.82;;;332.80;1612.80;;;;;;5056396;28;20021;-76
2022/04/14 06:31:52;;;;;;;20.38;12.55;;;;;;;;;;5056499;28;20021;-74
2022/04/14 06:34:18;;;;;;;17.33;11.32;;;;;;;;;;5056190;28;20036;-77
2022/04/14 06:36:45;;;;;;;22.42;14.55;;;;;;;;;;5056098;28;20033;-76
2022/04/14 06:39:12;;;;;;;13.63;9.80;;;333.30;1561.60;;;;;;5056320;28;20021;-74
2022/04/14 06:41:41;;;;;;;25.77;11.68;;;;;;;;;;5056340;28;20094;-76
2022/04/14 06:44:07;;;;;;;25.98;13.70;;;;;;;;;;5056059;28;20113;-77
2022/04/14 06:46:33;;;;;;;29.63;14.23;;;333.70;1510.40;;;;;;5056105;28;20028;-75
2022/04/14 06:48:59;;;;;;;19.05;11.77;;;;;;;;;;5056148;28;20548;-76
2022/04/14 06:51:25;;;;;;;25.55;13.57;;;358.60;1459.20;;;;;;5055949;28;20059;-74
2022/04/14 06:53:50;;;;;;;20.80;14.25;;;358.80;1459.20;;;;;;5038459;28;20052;-74
2022/04/14 06:56:16;;;;;;;27.25;13.77;;;359.00;1459.20;;;;;;5055977;28;20439;-74
2022/04/14 06:58:42;;;;;;;28.83;15.95;;;359.10;1459.20;;;;;;5055782;28;20040;-75
2022/04/14 07:01:08;;;;;;;19.17;12.50;;;359.30;1459.20;;;;;;5055853;28;20103;-75
2022/04/14 07:03:34;;;;;;;25.50;14.00;;;384.00;1433.60;;;;;;5055637;28;20390;-78
2022/04/14 07:06:01;;;;;;;22.75;14.35;;;384.10;1433.60;;;;;;5055487;28;20513;-74
2022/04/14 07:08:27;;;;;;;27.45;15.93;;;384.20;1433.60;;;;;;5037912;28;20029;-74
2022/04/14 07:10:54;;;;;;;23.48;18.20;;;384.60;1664.00;;;;;;5055718;28;20044;-76
2022/04/14 07:13:20;;;;;;;28.83;18.67;;;384.60;1433.60;;;;;;5055606;28;20095;-79
2022/04/14 07:15:45;;;;;;;27.77;18.02;;;384.80;1817.60;;;;;;5054930;28;20612;-76
2022/04/14 07:18:11;;;;;;;20.67;12.25;;;;;;;;;;5055480;28;20477;-76
2022/04/14 07:20:38;;;;;;;20.90;12.73;;;384.90;1356.80;;;;;;5055548;28;20021;-75
2022/04/14 07:23:05;;;;;;;19.75;13.02;;;;;;;;;;5055431;28;20021;-76
2022/04/14 07:25:33;;;;;;;23.60;12.10;;;;;;;;;;5055386;28;20170;-76
2022/04/14 07:28:00;;;;;;;20.17;12.40;;;;;;;;;;5055328;28;20112;-76
2022/04/14 07:30:26;;;;;;;18.95;11.25;;;;;;;;;;5055133;28;20021;-76
2022/04/14 07:32:53;;;;;;;19.23;11.00;;;410.00;1331.20;;;;;;5055258;28;20024;-76
2022/04/14 07:35:25;;;;;;;20.73;11.30;;;410.00;1331.20;;;;;;5055140;28;20025;-76
2022/04/14 07:37:51;;;;;;;21.77;12.00;;;410.20;1356.80;;;;;;5037114;28;20502;-79
2022/04/14 07:40:18;;;;;;;23.65;12.18;;;410.40;1331.20;;;;;;5055177;28;20036;-78
2022/04/14 07:42:46;;;;;;;30.50;12.05;;;410.50;1305.60;;;;;;5055093;28;20100;-75
2022/04/14 07:45:15;;;;;;;18.85;11.30;;;435.20;1305.60;;;;;;5054687;28;20027;-75
2022/04/14 07:47:42;;;;;;;21.17;12.77;;;435.40;1280.00;;;;;;5054891;28;20021;-72
2022/04/14 07:50:13;;;;;;;19.33;10.50;;;;;;;;;;5054817;28;20529;-76
2022/04/14 07:52:47;;;;;;;25.43;13.07;;;435.80;1203.20;;;;;;5055068;28;20044;-74
2022/04/14 07:55:27;;;;;;;12.60;7.43;;;435.80;1228.80;;;;;;5054654;28;20033;-75
2022/04/14 07:57:59;;;;;;;20.42;8.82;;;436.00;1177.60;;;;;;5054731;28;20060;-75
2022/04/14 08:00:26;;;;;;;12.25;7.35;;;;;;;;;;5054874;28;20025;-76
2022/04/14 08:02:56;;;;;;;13.30;8.32;;;;;;;;;;5054727;28;20021;-76
2022/04/14 08:05:35;;;;;;;15.82;7.13;;;461.00;1126.40;;;;;;5054738;28;20483;-74
2022/04/14 08:08:06;;;;;;;14.52;7.13;;;461.10;1126.40;;;;;;5054470;28;20036;-74
2022/04/14 08:10:32;;;;;;;15.07;7.93;;;461.10;1126.40;;;;;;5054669;28;20056;-74
2022/04/14 08:12:58;;;;;;;10.95;7.25;;;;;;;;;;5036524;28;20485;-75
2022/04/14 08:15:25;;;;;;;12.18;6.28;;;;;;;;;;5054284;28;20472;-75
2022/04/14 08:17:51;;;;;;;10.80;6.38;;;;;;;;;;5054635;28;20037;-74
2022/04/14 08:20:17;;;;;;;8.07;5.63;;;;;;;;;;5054361;28;20025;-74
2022/04/14 08:22:51;;;;;;;11.85;6.05;;;;;;;;;;5054119;28;20025;-74
2022/04/14 08:25:21;;;;;;;14.80;6.72;;;;;;;;;;5054315;28;20028;-72
2022/04/14 08:27:47;;;;;;;9.30;5.70;;;486.50;1024.00;;;;;;5053370;28;20025;-77
2022/04/14 08:30:16;;;;;;;11.30;6.95;;;486.50;1024.00;;;;;;5036166;28;20021;-76
2022/04/14 08:32:44;;;;;;;14.57;6.25;;;486.70;1049.60;;;;;;5054102;28;20017;-74
2022/04/14 08:35:10;;;;;;;7.07;4.47;;;486.90;1024.00;;;;;;5054025;28;20033;-74
2022/04/14 08:37:36;;;;;;;8.45;5.22;;;487.00;972.80;;;;;;5053812;28;20586;-78
2022/04/14 08:40:08;;;;;;;9.85;5.07;;;487.10;998.40;;;;;;5054025;28;20103;-74
2022/04/14 08:42:42;;;;;;;11.77;5.70;;;487.10;921.60;;;;;;5054036;28;20159;-73
2022/04/14 08:45:10;;;;;;;17.55;6.65;;;;;;;;;;5053871;28;20024;-74
2022/04/14 08:47:36;;;;;;;10.48;5.72;;;487.30;1024.00;;;;;;5053712;28;20415;-74
2022/04/14 08:50:04;;;;;;;10.32;5.65;;;512.20;921.60;;;;;;5053597;28;20025;-75
2022/04/14 08:52:34;;;;;;;7.63;6.00;;;512.40;870.40;;;;;;5053519;28;20379;-74
2022/04/14 08:55:01;;;;;;;11.95;4.85;;;512.40;870.40;;;;;;5053751;28;20548;-71
2022/04/14 08:57:31;;;;;;;14.00;6.25;;;512.90;870.40;;;;;;5053791;28;20068;-78
2022/04/14 08:59:58;;;;;;;20.35;10.23;;;;;;;;;;5053613;28;20025;-77
2022/04/14 09:02:25;;;;;;;10.57;6.20;;;;;;;;;;5053467;28;20475;-77
2022/04/14 09:04:51;;;;;;;8.50;5.72;;;537.70;844.80;;;;;;5053323;28;20056;-73
2022/04/14 09:07:17;;;;;;;8.65;6.13;;;537.80;870.40;;;;;;5053704;28;20060;-80
2022/04/14 09:09:46;;;;;;;10.95;7.15;;;537.90;896.00;;;;;;5053305;28;20025;-75
2022/04/14 09:12:12;;;;;;;14.32;7.70;;;538.00;896.00;;;;;;5053521;28;20356;-74
2022/04/14 09:14:38;;;;;;;8.90;7.18;;;538.20;870.40;;;;;;5053177;28;20475;-75
2022/04/14 09:17:05;;;;;;;8.77;6.47;;;538.10;870.40;;;;;;5053277;28;20041;-74
2022/04/14 09:19:32;;;;;;;8.30;5.50;;;538.50;896.00;;;;;;5053066;28;20021;-74
2022/04/14 09:22:09;;;;;;;9.82;5.05;;;563.20;870.40;;;;;;5053317;28;20060;-75
2022/04/14 09:24:44;;;;;;;14.45;6.72;;;563.30;896.00;;;;;;5053580;28;20021;-82
2022/04/14 09:27:24;;;;;;;7.88;4.43;;;;;;;;;;5053184;28;20482;-74
2022/04/14 09:29:50;;;;;;;6.50;4.97;;;;;;;;;;5053290;28;20036;-77
2022/04/14 09:32:37;;;;;;;11.63;5.50;;;564.00;819.20;;;;;;5052992;28;20060;-79
2022/04/14 09:35:03;;;;;;;8.00;4.85;;;589.10;793.60;;;;;;5053115;28;20056;-74
2022/04/14 09:37:30;;;;;;;6.50;4.60;;;589.10;793.60;;;;;;5052859;28;20039;-80
2022/04/14 09:40:08;;;;;;;8.55;5.55;;;589.20;819.20;;;;;;5053154;28;20028;-79
2022/04/14 09:42:43;;;;;;;20.98;8.20;;;;;;;;;;5052843;28;20378;-80
2022/04/14 09:45:18;;;;;;;8.60;5.55;;;;;;;;;;5053128;28;20104;-77
2022/04/14 09:47:44;;;;;;;10.50;6.22;;;;;;;;;;5052816;28;20031;-75
2022/04/14 09:50:32;;;;;;;5.03;4.38;;;;;;;;;;5052983;28;20027;-74
2022/04/14 09:52:58;;;;;;;6.45;5.82;;;;;;;;;;5039660;28;20069;-74
2022/04/14 09:55:24;;;;;;;9.18;5.05;;;;;;;;;;5053104;28;20021;-74
2022/04/14 09:58:10;;;;;;;8.38;5.13;;;;;;;;;;5052650;28;20037;-76
2022/04/14 10:00:50;;;;;;;12.15;6.15;;;;;;;;;;5052889;28;20467;-76
2022/04/14 10:03:26;;;;;;;13.57;5.18;;;;;;;;;;5052866;28;20028;-77
2022/04/14 10:05:53;;;;;;;7.97;4.97;;;;;;;;;;5052591;28;20025;-76
2022/04/14 10:08:20;;;;;;;8.82;5.38;;;;;;;;;;5052718;28;20024;-77
2022/04/14 10:10:47;;;;;;;9.45;6.70;;;1024.20;435.20;;;;;;5053162;28;20442;-78
2022/04/14 10:13:16;;;;;;;6.75;4.88;;;1024.30;460.80;;;;;;5052800;28;20474;-77
2022/04/14 10:15:47;;;;;;;6.10;5.55;;;999.10;486.40;;;;;;5052393;28;20071;-76
2022/04/14 10:18:15;;;;;;;8.75;5.05;;;;;;;;;;5052553;28;20064;-76
2022/04/14 10:20:43;;;;;;;9.32;4.60;;;1050.20;435.20;;;;;;5052475;28;20060;-76
2022/04/14 10:23:09;;;;;;;7.65;5.85;;;;;;;;;;5052481;28;20021;-75
2022/04/14 10:25:37;;;;;;;8.23;5.88;;;;;;;;;;5052722;28;20048;-75
2022/04/14 10:28:04;;;;;;;9.93;5.20;;;;;;;;;;5052469;28;20025;-76
2022/04/14 10:30:31;;;;;;;8.02;5.88;;;;;;;;;;5052452;28;20029;-76
2022/04/14 10:32:57;;;;;;;16.73;8.27;;;;;;;;;;5052210;28;20495;-76
2022/04/14 10:35:24;;;;;;;7.60;5.63;;;;;;;;;;5052577;28;20029;-76
2022/04/14 10:38:11;;;;;;;10.38;5.95;;;;;;;;;;5052613;28;20033;-75
2022/04/14 10:40:37;;;;;;;8.48;5.32;;;;;;;;;;5038877;28;20107;-77
2022/04/14 10:43:07;;;;;;;9.23;5.35;;;;;;;;;;5052758;28;20021;-77
2022/04/14 10:45:47;;;;;;;6.82;5.32;;;;;;;;;;5052305;28;20084;-77
2022/04/14 10:48:27;;;;;;;8.40;5.40;;;;;;;;;;5052251;28;20340;-76
2022/04/14 10:51:27;;;;;;;6.95;5.30;;;;;;;;;;5037227;28;20036;-76
2022/04/14 10:54:06;;;;;;;8.73;5.70;;;;;;;;;;4975061;28;20101;-76
2022/04/14 10:56:35;;;;;;;11.10;6.40;;;;;;;;;;4974787;28;20413;-76
2022/04/14 10:59:02;;;;;;;14.13;6.75;;;;;;;;;;4974958;28;20513;-76
2022/04/14 11:01:46;;;;;;;11.85;5.82;;;;;;;;;;4974951;28;20035;-79
2022/04/14 11:04:27;;;;;;;9.38;5.60;;;;;;;;;;4974681;28;20038;-76
2022/04/14 11:07:12;;;;;;;8.55;5.32;;;;;;;;;;4958698;28;20041;-77
2022/04/14 11:09:39;;;;;;;5.88;4.85;;;;;;;;;;4974843;28;20042;-76
2022/04/14 11:12:16;;;;;;;17.48;6.20;;;;;;;;;;4958596;28;20076;-76
2022/04/14 11:14:46;;;;;;;12.07;6.22;;;;;;;;;;4974371;28;20031;-77
2022/04/14 11:17:34;;;;;;;10.32;5.97;;;;;;;;;;4974286;28;20551;-77
2022/04/14 11:20:19;;;;;;;7.30;5.30;;;;;;;;;;4974637;28;20464;-77
2022/04/14 11:23:04;;;;;;;5.50;4.55;;;;;;;;;;4958376;28;20043;-77
2022/04/14 11:25:38;;;;;;;8.05;5.03;;;1050.00;409.60;;;;;;4957962;28;20035;-77
2022/04/14 11:28:30;;;;;;;6.93;4.10;;;1050.40;409.60;;;;;;4974444;28;20385;-77
2022/04/14 11:30:56;;;;;;;11.00;5.25;;;;;;;;;;5054948;28;20364;-77
2022/04/14 11:33:42;;;;;;;10.13;5.20;;;;;;;;;;5054980;28;20464;-76
2022/04/14 11:36:25;;;;;;;8.15;5.85;;;;;;;;;;5054602;28;20122;-77
2022/04/14 11:38:57;;;;;;;10.80;7.10;;;;;;;;;;5036589;28;20041;-75
2022/04/14 11:41:43;;;;;;;11.20;6.55;;;;;;;;;;5055224;28;20158;-75
2022/04/14 11:44:25;;;;;;;12.02;6.07;;;948.10;435.20;;;;;;5054972;28;20021;-74
2022/04/14 11:46:52;;;;;;;5.82;4.55;;;;;;;;;;5054826;28;20501;-75
2022/04/14 11:49:21;;;;;;;13.00;7.30;;;;;;;;;;5054913;28;20471;-75
2022/04/14 11:51:48;;;;;;;7.40;4.82;;;921.90;486.40;;;;;;5054699;28;20039;-75
2022/04/14 11:54:29;;;;;;;13.38;8.13;;;921.70;486.40;;;;;;5054746;28;20021;-76
2022/04/14 11:56:56;;;;;;;7.38;4.63;;;;;;;;;;5036822;28;20041;-77
2022/04/14 11:59:34;;;;;;;11.25;4.90;;;;;;;;;;5055068;28;20029;-77
2022/04/14 12:02:02;;;;;;;10.02;4.68;;;;;;;;;;5054334;28;20024;-78
2022/04/14 12:04:28;;;;;;;7.60;4.57;;;;;;;;;;5037114;28;20028;-76
2022/04/14 12:06:55;;;;;;;8.35;5.63;;;;;;;;;;5054666;28;20475;-76
2022/04/14 12:09:22;;;;;;;9.93;5.20;;;819.60;563.20;;;;;;5054658;28;20032;-75
2022/04/14 12:11:48;;;;;;;17.60;8.80;;;;;;;;;;5054488;28;20031;-74
2022/04/14 12:14:16;;;;;;;14.07;8.80;;;794.00;614.40;;;;;;5036207;28;20033;-77
2022/04/14 12:16:49;;;;;;;8.23;5.57;;;;;;;;;;5036142;28;20083;-75
2022/04/14 12:19:14;;;;;;;11.32;5.85;;;793.60;640.00;;;;;;5054155;28;20025;-73
2022/04/14 12:21:41;;;;;;;7.90;5.28;;;;;;;;;;5054225;28;20031;-75
2022/04/14 12:24:07;;;;;;;10.40;5.28;;;;;;;;;;5054244;28;20119;-76
2022/04/14 12:26:37;;;;;;;10.00;5.78;;;;;;;;;;5054465;28;20082;-75
2022/04/14 12:29:07;;;;;;;12.77;7.68;;;;;;;;;;5054536;28;20399;-76
2022/04/14 12:31:33;;;;;;;9.30;5.57;;;743.00;640.00;;;;;;5054238;28;20021;-75
2022/04/14 12:34:00;;;;;;;7.78;5.20;;;743.10;640.00;;;;;;5054185;28;20141;-76
2022/04/14 12:36:36;;;;;;;9.77;5.57;;;743.20;640.00;;;;;;5054263;28;20031;-73
2022/04/14 12:39:21;;;;;;;9.93;5.22;;;;;;;;;;5053777;28;20116;-72
2022/04/14 12:41:48;;;;;;;7.30;5.35;;;;;;;;;;5053898;28;20025;-72
2022/04/14 12:44:18;;;;;;;8.98;5.45;;;;;;;;;;5053938;28;20033;-72
2022/04/14 12:46:47;;;;;;;12.15;6.55;;;;;;;;;;5054260;28;20029;-72
2022/04/14 12:49:15;;;;;;;10.30;6.80;;;;;;;;;;5053777;28;20028;-71
2022/04/14 12:51:42;;;;;;;12.45;5.75;;;;;;;;;;5053483;28;20029;-74
2022/04/14 12:54:14;;;;;;;12.95;6.05;;;;;;;;;;5053765;28;20107;-74
2022/04/14 12:56:41;;;;;;;12.80;6.18;;;;;;;;;;5053717;28;20120;-72
2022/04/14 12:59:11;;;;;;;8.88;5.95;;;;;;;;;;5053569;28;20116;-75
2022/04/14 13:01:48;;;;;;;9.30;6.57;;;;;;;;;;5053527;28;20025;-73
2022/04/14 13:04:14;;;;;;;9.45;6.40;;;;;;;;;;5048642;28;20503;-72
2022/04/14 13:06:41;;;;;;;10.15;5.35;;;;;;;;;;5053260;28;20036;-74
2022/04/14 13:09:16;;;;;;;12.23;6.18;;;;;;;;;;5035712;28;20383;-74
2022/04/14 13:11:43;;;;;;;8.10;5.63;;;;;;;;;;5053141;28;20017;-73
2022/04/14 13:14:20;;;;;;;6.80;4.75;;;;;;;;;;5053081;28;20049;-73
2022/04/14 13:16:47;;;;;;;8.02;5.28;;;;;;;;;;5052943;28;20040;-73
2022/04/14 13:19:13;;;;;;;10.68;7.97;;;;;;;;;;5053166;28;20414;-73
2022/04/14 13:21:40;;;;;;;6.57;5.20;;;;;;;;;;5053355;28;20098;-73
2022/04/14 13:24:06;;;;;;;8.70;6.15;;;;;;;;;;5053192;28;20048;-75
2022/04/14 13:26:32;;;;;;;8.88;5.95;;;;;;;;;;5053133;28;20052;-75
2022/04/14 13:28:59;;;;;;;9.95;6.03;;;;;;;;;;5053099;28;20465;-75
2022/04/14 13:31:25;;;;;;;13.23;7.78;;;;;;;;;;5053280;28;20096;-75
2022/04/14 13:33:51;;;;;;;12.23;7.68;;;;;;;;;;5052700;28;20029;-75
2022/04/14 13:36:17;;;;;;;10.57;6.38;;;;;;;;;;5052951;28;20068;-75